sensor_id;sensor_type;location;lat;lon;timestamp;pressure;altitude;pressure_sealevel;temperature;humidity
70506;BME280;58032;49.820;6.274;2023-05-07T00:00:18;97603.84;;;10.59;100.00
70506;BME280;58032;49.820;6.274;2023-05-07T00:02:46;97605.69;;;10.53;100.00
70506;BME280;58032;49.820;6.274;2023-05-07T00:05:13;97609.38;;;10.41;100.00
70506;BME280;58032;49.820;6.274;2023-05-07T00:07:40;97604.88;;;10.30;100.00
70506;BME280;58032;49.820;6.274;2023-05-07T00:10:07;97608.91;;;10.29;100.00
70506;BME280;58032;49.820;6.274;2023-05-07T00:12:34;97611.94;;;10.35;100.00
70506;BME280;58032;49.820;6.274;2023-05-07T00:15:02;97604.50;;;10.41;100.00
70506;BME280;58032;49.820;6.274;2023-05-07T00:17:30;97603.47;;;10.48;100.00
70506;BME280;58032;49.820;6.274;2023-05-07T00:19:57;97600.66;;;10.48;100.00
70506;BME280;58032;49.820;6.274;2023-05-07T00:22:23;97600.78;;;10.44;100.00
70506;BME280;58032;49.820;6.274;2023-05-07T00:24:50;97596.44;;;10.30;100.00
70506;BME280;58032;49.820;6.274;2023-05-07T00:27:17;97599.34;;;10.05;100.00
70506;BME280;58032;49.820;6.274;2023-05-07T00:29:44;97603.22;;;9.85;100.00
70506;BME280;58032;49.820;6.274;2023-05-07T00:32:11;97596.94;;;9.81;100.00
70506;BME280;58032;49.820;6.274;2023-05-07T00:34:38;97601.19;;;9.86;100.00
70506;BME280;58032;49.820;6.274;2023-05-07T00:37:06;97607.72;;;9.95;100.00
70506;BME280;58032;49.820;6.274;2023-05-07T00:39:34;97595.28;;;10.06;100.00
70506;BME280;58032;49.820;6.274;2023-05-07T00:42:01;97593.56;;;10.08;100.00
70506;BME280;58032;49.820;6.274;2023-05-07T00:44:29;97590.28;;;9.88;100.00
70506;BME280;58032;49.820;6.274;2023-05-07T00:46:57;97603.16;;;9.63;100.00
70506;BME280;58032;49.820;6.274;2023-05-07T00:49:42;97601.75;;;9.45;100.00
70506;BME280;58032;49.820;6.274;2023-05-07T00:52:11;97601.28;;;9.34;100.00
70506;BME280;58032;49.820;6.274;2023-05-07T00:54:41;97608.25;;;9.29;100.00
70506;BME280;58032;49.820;6.274;2023-05-07T00:57:09;97612.31;;;9.28;100.00
70506;BME280;58032;49.820;6.274;2023-05-07T00:59:37;97609.38;;;9.32;100.00
70506;BME280;58032;49.820;6.274;2023-05-07T01:02:04;97608.84;;;9.37;100.00
70506;BME280;58032;49.820;6.274;2023-05-07T01:04:31;97605.56;;;9.39;100.00
70506;BME280;58032;49.820;6.274;2023-05-07T01:06:59;97597.91;;;9.39;100.00
70506;BME280;58032;49.820;6.274;2023-05-07T01:09:28;97601.53;;;9.40;100.00
70506;BME280;58032;49.820;6.274;2023-05-07T01:11:56;97600.53;;;9.33;100.00
70506;BME280;58032;49.820;6.274;2023-05-07T01:14:24;97591.63;;;9.22;100.00
70506;BME280;58032;49.820;6.274;2023-05-07T01:16:52;97588.06;;;9.09;100.00
70506;BME280;58032;49.820;6.274;2023-05-07T01:19:21;97588.72;;;9.00;100.00
70506;BME280;58032;49.820;6.274;2023-05-07T01:21:49;97590.41;;;8.97;100.00
70506;BME280;58032;49.820;6.274;2023-05-07T01:24:18;97579.38;;;9.03;100.00
70506;BME280;58032;49.820;6.274;2023-05-07T01:26:45;97588.81;;;9.09;100.00
70506;BME280;58032;49.820;6.274;2023-05-07T01:29:15;97581.53;;;9.12;100.00
70506;BME280;58032;49.820;6.274;2023-05-07T01:31:42;97592.09;;;9.08;100.00
70506;BME280;58032;49.820;6.274;2023-05-07T01:34:11;97574.44;;;8.81;100.00
70506;BME280;58032;49.820;6.274;2023-05-07T01:36:40;97579.69;;;8.66;100.00
70506;BME280;58032;49.820;6.274;2023-05-07T01:39:09;97583.66;;;8.69;100.00
70506;BME280;58032;49.820;6.274;2023-05-07T01:41:37;97585.78;;;8.78;100.00
70506;BME280;58032;49.820;6.274;2023-05-07T01:44:05;97585.91;;;8.87;100.00
70506;BME280;58032;49.820;6.274;2023-05-07T01:46:33;97583.00;;;8.91;100.00
70506;BME280;58032;49.820;6.274;2023-05-07T01:49:00;97581.75;;;8.92;100.00
70506;BME280;58032;49.820;6.274;2023-05-07T01:51:27;97588.72;;;8.87;100.00
70506;BME280;58032;49.820;6.274;2023-05-07T01:53:55;97583.09;;;8.74;100.00
70506;BME280;58032;49.820;6.274;2023-05-07T01:56:22;97588.81;;;8.70;100.00
70506;BME280;58032;49.820;6.274;2023-05-07T01:58:50;97587.72;;;8.81;100.00
70506;BME280;58032;49.820;6.274;2023-05-07T02:01:18;97584.69;;;8.88;100.00
70506;BME280;58032;49.820;6.274;2023-05-07T02:03:45;97590.28;;;8.88;100.00
70506;BME280;58032;49.820;6.274;2023-05-07T02:06:19;97586.25;;;8.76;100.00
70506;BME280;58032;49.820;6.274;2023-05-07T02:08:47;97591.81;;;8.63;100.00
70506;BME280;58032;49.820;6.274;2023-05-07T02:11:15;97591.25;;;8.55;100.00
70506;BME280;58032;49.820;6.274;2023-05-07T02:13:42;97591.69;;;8.54;100.00
70506;BME280;58032;49.820;6.274;2023-05-07T02:16:09;97597.69;;;8.39;100.00
70506;BME280;58032;49.820;6.274;2023-05-07T02:18:38;97604.06;;;8.27;100.00
70506;BME280;58032;49.820;6.274;2023-05-07T02:21:04;97602.78;;;8.15;100.00
70506;BME280;58032;49.820;6.274;2023-05-07T02:23:31;97598.63;;;8.20;100.00
70506;BME280;58032;49.820;6.274;2023-05-07T02:25:59;97603.50;;;8.32;100.00
70506;BME280;58032;49.820;6.274;2023-05-07T02:28:26;97598.91;;;8.38;100.00
70506;BME280;58032;49.820;6.274;2023-05-07T02:31:00;97608.31;;;8.32;100.00
70506;BME280;58032;49.820;6.274;2023-05-07T02:33:28;97605.41;;;8.35;100.00
70506;BME280;58032;49.820;6.274;2023-05-07T02:35:55;97605.22;;;8.43;100.00
70506;BME280;58032;49.820;6.274;2023-05-07T02:38:23;97607.19;;;8.59;100.00
70506;BME280;58032;49.820;6.274;2023-05-07T02:40:50;97598.91;;;8.68;100.00
70506;BME280;58032;49.820;6.274;2023-05-07T02:43:16;97596.31;;;8.61;100.00
70506;BME280;58032;49.820;6.274;2023-05-07T02:45:46;97605.75;;;8.37;100.00
70506;BME280;58032;49.820;6.274;2023-05-07T02:48:14;97603.72;;;8.25;100.00
70506;BME280;58032;49.820;6.274;2023-05-07T02:50:41;97598.78;;;8.29;100.00
70506;BME280;58032;49.820;6.274;2023-05-07T02:53:09;97598.63;;;8.20;100.00
70506;BME280;58032;49.820;6.274;2023-05-07T02:55:36;97594.00;;;8.13;100.00
70506;BME280;58032;49.820;6.274;2023-05-07T02:58:03;97599.06;;;8.18;100.00
70506;BME280;58032;49.820;6.274;2023-05-07T03:00:32;97594.38;;;8.28;100.00
70506;BME280;58032;49.820;6.274;2023-05-07T03:03:19;97595.66;;;8.27;100.00
70506;BME280;58032;49.820;6.274;2023-05-07T03:05:46;97596.88;;;8.26;100.00
70506;BME280;58032;49.820;6.274;2023-05-07T03:08:13;97591.59;;;8.28;100.00
70506;BME280;58032;49.820;6.274;2023-05-07T03:10:40;97596.53;;;8.24;100.00
70506;BME280;58032;49.820;6.274;2023-05-07T03:13:07;97592.94;;;8.23;100.00
70506;BME280;58032;49.820;6.274;2023-05-07T03:15:34;97592.13;;;8.23;100.00
70506;BME280;58032;49.820;6.274;2023-05-07T03:18:01;97585.44;;;8.33;100.00
70506;BME280;58032;49.820;6.274;2023-05-07T03:20:28;97583.47;;;8.47;100.00
70506;BME280;58032;49.820;6.274;2023-05-07T03:22:56;97585.69;;;8.39;100.00
70506;BME280;58032;49.820;6.274;2023-05-07T03:25:23;97591.78;;;8.21;100.00
70506;BME280;58032;49.820;6.274;2023-05-07T03:27:49;97591.97;;;8.14;100.00
70506;BME280;58032;49.820;6.274;2023-05-07T03:30:20;97589.88;;;8.18;100.00
70506;BME280;58032;49.820;6.274;2023-05-07T03:32:47;97590.81;;;8.28;100.00
70506;BME280;58032;49.820;6.274;2023-05-07T03:35:14;97587.03;;;8.34;100.00
70506;BME280;58032;49.820;6.274;2023-05-07T03:37:42;97573.09;;;8.44;100.00
70506;BME280;58032;49.820;6.274;2023-05-07T03:40:10;97574.28;;;8.59;100.00
70506;BME280;58032;49.820;6.274;2023-05-07T03:42:48;97573.31;;;8.66;100.00
70506;BME280;58032;49.820;6.274;2023-05-07T03:45:17;97583.44;;;8.76;100.00
70506;BME280;58032;49.820;6.274;2023-05-07T03:47:50;97585.97;;;8.58;100.00
70506;BME280;58032;49.820;6.274;2023-05-07T03:50:20;97582.97;;;8.35;100.00
70506;BME280;58032;49.820;6.274;2023-05-07T03:52:46;97582.09;;;8.38;100.00
70506;BME280;58032;49.820;6.274;2023-05-07T03:55:16;97582.25;;;8.48;100.00
70506;BME280;58032;49.820;6.274;2023-05-07T03:57:48;97573.03;;;8.47;100.00
70506;BME280;58032;49.820;6.274;2023-05-07T04:00:15;97582.19;;;8.64;100.00
70506;BME280;58032;49.820;6.274;2023-05-07T04:02:48;97583.06;;;8.61;100.00
70506;BME280;58032;49.820;6.274;2023-05-07T04:05:22;97583.47;;;8.47;100.00
70506;BME280;58032;49.820;6.274;2023-05-07T04:07:54;97585.44;;;8.33;100.00
70506;BME280;58032;49.820;6.274;2023-05-07T04:10:26;97589.63;;;8.42;100.00
70506;BME280;58032;49.820;6.274;2023-05-07T04:12:56;97589.44;;;8.49;100.00
70506;BME280;58032;49.820;6.274;2023-05-07T04:15:25;97581.84;;;8.62;100.00
70506;BME280;58032;49.820;6.274;2023-05-07T04:17:52;97579.47;;;8.74;100.00
70506;BME280;58032;49.820;6.274;2023-05-07T04:20:23;97592.06;;;8.82;100.00
70506;BME280;58032;49.820;6.274;2023-05-07T04:22:56;97580.94;;;8.78;100.00
70506;BME280;58032;49.820;6.274;2023-05-07T04:25:23;97580.19;;;8.91;100.00
70506;BME280;58032;49.820;6.274;2023-05-07T04:27:57;97579.97;;;9.11;100.00
70506;BME280;58032;49.820;6.274;2023-05-07T04:30:26;97583.44;;;9.28;100.00
70506;BME280;58032;49.820;6.274;2023-05-07T04:32:53;97569.16;;;9.35;100.00
70506;BME280;58032;49.820;6.274;2023-05-07T04:35:22;97577.00;;;9.40;100.00
70506;BME280;58032;49.820;6.274;2023-05-07T04:37:49;97581.50;;;9.38;100.00
70506;BME280;58032;49.820;6.274;2023-05-07T04:40:16;97584.66;;;9.27;100.00
70506;BME280;58032;49.820;6.274;2023-05-07T04:42:43;97589.03;;;9.54;100.00
70506;BME280;58032;49.820;6.274;2023-05-07T04:45:11;97585.69;;;11.74;100.00
70506;BME280;58032;49.820;6.274;2023-05-07T04:47:40;97575.25;;;12.30;100.00
70506;BME280;58032;49.820;6.274;2023-05-07T04:50:08;97565.50;;;12.03;100.00
70506;BME280;58032;49.820;6.274;2023-05-07T04:52:35;97564.06;;;11.89;100.00
70506;BME280;58032;49.820;6.274;2023-05-07T04:55:03;97565.00;;;11.86;100.00
70506;BME280;58032;49.820;6.274;2023-05-07T04:57:35;97567.16;;;11.45;100.00
70506;BME280;58032;49.820;6.274;2023-05-07T05:00:03;97560.63;;;10.85;100.00
70506;BME280;58032;49.820;6.274;2023-05-07T05:02:32;97559.97;;;11.71;100.00
70506;BME280;58032;49.820;6.274;2023-05-07T05:04:59;97548.47;;;14.71;100.00
70506;BME280;58032;49.820;6.274;2023-05-07T05:07:26;97541.06;;;13.81;100.00
70506;BME280;58032;49.820;6.274;2023-05-07T05:09:53;97551.00;;;13.76;100.00
70506;BME280;58032;49.820;6.274;2023-05-07T05:12:20;97542.03;;;13.20;100.00
70506;BME280;58032;49.820;6.274;2023-05-07T05:14:48;97551.25;;;13.29;100.00
70506;BME280;58032;49.820;6.274;2023-05-07T05:17:15;97554.13;;;13.20;100.00
70506;BME280;58032;49.820;6.274;2023-05-07T05:19:42;97554.84;;;13.39;100.00
70506;BME280;58032;49.820;6.274;2023-05-07T05:22:09;97554.06;;;13.29;100.00
70506;BME280;58032;49.820;6.274;2023-05-07T05:24:36;97557.88;;;13.26;100.00
70506;BME280;58032;49.820;6.274;2023-05-07T05:27:03;97555.13;;;13.41;100.00
70506;BME280;58032;49.820;6.274;2023-05-07T05:29:30;97553.50;;;12.73;100.00
70506;BME280;58032;49.820;6.274;2023-05-07T05:31:58;97556.28;;;12.21;100.00
70506;BME280;58032;49.820;6.274;2023-05-07T05:34:26;97554.59;;;13.19;100.00
70506;BME280;58032;49.820;6.274;2023-05-07T05:36:54;97553.06;;;13.75;100.00
70506;BME280;58032;49.820;6.274;2023-05-07T05:39:21;97548.50;;;14.17;100.00
70506;BME280;58032;49.820;6.274;2023-05-07T05:41:50;97551.38;;;13.93;100.00
70506;BME280;58032;49.820;6.274;2023-05-07T05:44:17;97555.56;;;13.73;100.00
70506;BME280;58032;49.820;6.274;2023-05-07T05:46:44;97545.97;;;14.34;100.00
70506;BME280;58032;49.820;6.274;2023-05-07T05:49:11;97550.72;;;14.67;100.00
70506;BME280;58032;49.820;6.274;2023-05-07T05:51:39;97561.91;;;13.68;100.00
70506;BME280;58032;49.820;6.274;2023-05-07T05:54:05;97564.63;;;13.87;100.00
70506;BME280;58032;49.820;6.274;2023-05-07T05:56:33;97569.84;;;13.79;100.00
70506;BME280;58032;49.820;6.274;2023-05-07T05:59:00;97567.19;;;13.75;100.00
70506;BME280;58032;49.820;6.274;2023-05-07T06:01:27;97573.63;;;13.52;100.00
70506;BME280;58032;49.820;6.274;2023-05-07T06:03:56;97575.78;;;13.57;100.00
70506;BME280;58032;49.820;6.274;2023-05-07T06:06:23;97577.09;;;13.80;100.00
70506;BME280;58032;49.820;6.274;2023-05-07T06:08:50;97572.50;;;13.83;100.00
70506;BME280;58032;49.820;6.274;2023-05-07T06:11:21;97575.88;;;13.48;100.00
70506;BME280;58032;49.820;6.274;2023-05-07T06:13:49;97568.72;;;13.86;100.00
70506;BME280;58032;49.820;6.274;2023-05-07T06:16:15;97588.38;;;14.04;100.00
70506;BME280;58032;49.820;6.274;2023-05-07T06:18:43;97581.44;;;13.90;100.00
70506;BME280;58032;49.820;6.274;2023-05-07T06:21:13;97590.19;;;13.92;100.00
70506;BME280;58032;49.820;6.274;2023-05-07T06:23:41;97589.13;;;13.90;100.00
70506;BME280;58032;49.820;6.274;2023-05-07T06:26:09;97590.00;;;13.48;100.00
70506;BME280;58032;49.820;6.274;2023-05-07T06:28:40;97600.69;;;13.43;100.00
70506;BME280;58032;49.820;6.274;2023-05-07T06:31:20;97597.69;;;13.38;100.00
70506;BME280;58032;49.820;6.274;2023-05-07T06:33:54;97600.25;;;13.69;100.00
70506;BME280;58032;49.820;6.274;2023-05-07T06:36:25;97609.53;;;13.94;100.00
70506;BME280;58032;49.820;6.274;2023-05-07T06:38:56;97599.34;;;14.51;100.00
70506;BME280;58032;49.820;6.274;2023-05-07T06:41:23;97591.72;;;14.18;100.00
70506;BME280;58032;49.820;6.274;2023-05-07T06:43:50;97605.97;;;14.08;100.00
70506;BME280;58032;49.820;6.274;2023-05-07T06:46:35;97595.13;;;14.46;100.00
70506;BME280;58032;49.820;6.274;2023-05-07T06:49:03;97600.44;;;13.90;100.00
70506;BME280;58032;49.820;6.274;2023-05-07T06:51:30;97601.47;;;13.77;100.00
70506;BME280;58032;49.820;6.274;2023-05-07T06:54:01;97592.81;;;13.81;100.00
70506;BME280;58032;49.820;6.274;2023-05-07T06:56:29;97601.38;;;13.63;100.00
70506;BME280;58032;49.820;6.274;2023-05-07T06:58:56;97600.84;;;13.73;100.00
70506;BME280;58032;49.820;6.274;2023-05-07T07:01:23;97595.09;;;13.68;100.00
70506;BME280;58032;49.820;6.274;2023-05-07T07:03:50;97598.59;;;13.87;100.00
70506;BME280;58032;49.820;6.274;2023-05-07T07:06:19;97593.16;;;13.98;100.00
70506;BME280;58032;49.820;6.274;2023-05-07T07:08:47;97587.81;;;14.15;100.00
70506;BME280;58032;49.820;6.274;2023-05-07T07:11:16;97596.63;;;14.71;100.00
70506;BME280;58032;49.820;6.274;2023-05-07T07:13:42;97592.94;;;15.10;100.00
70506;BME280;58032;49.820;6.274;2023-05-07T07:16:10;97583.91;;;14.52;100.00
70506;BME280;58032;49.820;6.274;2023-05-07T07:18:37;97592.09;;;14.50;100.00
70506;BME280;58032;49.820;6.274;2023-05-07T07:21:09;97596.75;;;14.38;100.00
70506;BME280;58032;49.820;6.274;2023-05-07T07:23:36;97593.53;;;14.84;100.00
70506;BME280;58032;49.820;6.274;2023-05-07T07:26:03;97601.16;;;14.78;100.00
70506;BME280;58032;49.820;6.274;2023-05-07T07:28:30;97596.56;;;14.81;100.00
70506;BME280;58032;49.820;6.274;2023-05-07T07:30:57;97588.22;;;15.22;100.00
70506;BME280;58032;49.820;6.274;2023-05-07T07:33:23;97600.31;;;14.63;100.00
70506;BME280;58032;49.820;6.274;2023-05-07T07:35:50;97600.00;;;14.85;100.00
70506;BME280;58032;49.820;6.274;2023-05-07T07:38:17;97593.22;;;15.12;100.00
70506;BME280;58032;49.820;6.274;2023-05-07T07:40:44;97591.94;;;15.28;100.00
70506;BME280;58032;49.820;6.274;2023-05-07T07:43:12;97589.22;;;15.04;100.00
70506;BME280;58032;49.820;6.274;2023-05-07T07:45:39;97584.94;;;15.80;100.00
70506;BME280;58032;49.820;6.274;2023-05-07T07:48:07;97588.47;;;15.54;100.00
70506;BME280;58032;49.820;6.274;2023-05-07T07:50:36;97583.00;;;15.71;100.00
70506;BME280;58032;49.820;6.274;2023-05-07T07:53:09;97591.41;;;16.22;100.00
70506;BME280;58032;49.820;6.274;2023-05-07T07:55:40;97596.44;;;16.53;100.00
70506;BME280;58032;49.820;6.274;2023-05-07T07:58:09;97594.91;;;16.11;100.00
70506;BME280;58032;49.820;6.274;2023-05-07T08:00:36;97597.03;;;16.37;100.00
70506;BME280;58032;49.820;6.274;2023-05-07T08:03:03;97588.25;;;16.61;100.00
70506;BME280;58032;49.820;6.274;2023-05-07T08:05:35;97596.16;;;16.77;100.00
70506;BME280;58032;49.820;6.274;2023-05-07T08:08:04;97593.38;;;17.09;100.00
70506;BME280;58032;49.820;6.274;2023-05-07T08:10:33;97596.16;;;17.68;100.00
70506;BME280;58032;49.820;6.274;2023-05-07T08:13:10;97590.19;;;16.96;100.00
70506;BME280;58032;49.820;6.274;2023-05-07T08:15:39;97592.06;;;18.29;100.00
70506;BME280;58032;49.820;6.274;2023-05-07T08:18:06;97589.78;;;17.90;100.00
70506;BME280;58032;49.820;6.274;2023-05-07T08:20:33;97587.63;;;18.17;100.00
70506;BME280;58032;49.820;6.274;2023-05-07T08:23:07;97595.00;;;18.58;100.00
70506;BME280;58032;49.820;6.274;2023-05-07T08:25:34;97594.88;;;19.35;100.00
70506;BME280;58032;49.820;6.274;2023-05-07T08:28:02;97590.38;;;18.72;100.00
70506;BME280;58032;49.820;6.274;2023-05-07T08:30:30;97593.28;;;19.28;100.00
70506;BME280;58032;49.820;6.274;2023-05-07T08:32:57;97600.91;;;18.37;100.00
70506;BME280;58032;49.820;6.274;2023-05-07T08:35:24;97601.63;;;18.21;100.00
70506;BME280;58032;49.820;6.274;2023-05-07T08:37:52;97595.38;;;19.05;100.00
70506;BME280;58032;49.820;6.274;2023-05-07T08:40:23;97604.09;;;18.56;100.00
70506;BME280;58032;49.820;6.274;2023-05-07T08:42:53;97604.44;;;19.09;100.00
70506;BME280;58032;49.820;6.274;2023-05-07T08:45:20;97602.03;;;18.68;100.00
70506;BME280;58032;49.820;6.274;2023-05-07T08:47:52;97603.03;;;18.59;100.00
70506;BME280;58032;49.820;6.274;2023-05-07T08:50:23;97596.66;;;18.93;100.00
70506;BME280;58032;49.820;6.274;2023-05-07T08:52:51;97594.28;;;18.91;100.00
70506;BME280;58032;49.820;6.274;2023-05-07T08:55:20;97597.75;;;18.24;100.00
70506;BME280;58032;49.820;6.274;2023-05-07T08:57:47;97600.34;;;17.78;100.00
70506;BME280;58032;49.820;6.274;2023-05-07T09:00:16;97604.50;;;18.32;100.00
70506;BME280;58032;49.820;6.274;2023-05-07T09:02:46;97598.22;;;19.05;100.00
70506;BME280;58032;49.820;6.274;2023-05-07T09:05:13;97603.28;;;18.56;100.00
70506;BME280;58032;49.820;6.274;2023-05-07T09:07:40;97598.75;;;18.98;100.00
70506;BME280;58032;49.820;6.274;2023-05-07T09:10:08;97597.44;;;19.33;100.00
70506;BME280;58032;49.820;6.274;2023-05-07T09:12:37;97597.16;;;19.59;100.00
70506;BME280;58032;49.820;6.274;2023-05-07T09:15:07;97608.13;;;19.16;100.00
70506;BME280;58032;49.820;6.274;2023-05-07T09:17:35;97609.63;;;18.94;100.00
70506;BME280;58032;49.820;6.274;2023-05-07T09:20:03;97609.59;;;18.82;100.00
70506;BME280;58032;49.820;6.274;2023-05-07T09:22:32;97615.09;;;19.03;100.00
70506;BME280;58032;49.820;6.274;2023-05-07T09:25:07;97605.75;;;19.14;100.00
70506;BME280;58032;49.820;6.274;2023-05-07T09:27:37;97600.03;;;19.14;100.00
70506;BME280;58032;49.820;6.274;2023-05-07T09:30:07;97600.56;;;19.41;100.00
70506;BME280;58032;49.820;6.274;2023-05-07T09:32:38;97603.59;;;20.05;100.00
70506;BME280;58032;49.820;6.274;2023-05-07T09:35:17;97600.72;;;21.12;100.00
70506;BME280;58032;49.820;6.274;2023-05-07T09:37:49;97597.16;;;21.00;100.00
70506;BME280;58032;49.820;6.274;2023-05-07T09:40:22;97603.66;;;20.53;100.00
70506;BME280;58032;49.820;6.274;2023-05-07T09:42:50;97595.75;;;20.70;100.00
70506;BME280;58032;49.820;6.274;2023-05-07T09:45:25;97594.91;;;20.87;100.00
70506;BME280;58032;49.820;6.274;2023-05-07T09:47:55;97598.28;;;21.58;100.00
70506;BME280;58032;49.820;6.274;2023-05-07T09:50:28;97599.19;;;22.21;100.00
70506;BME280;58032;49.820;6.274;2023-05-07T09:52:56;97598.75;;;22.11;100.00
70506;BME280;58032;49.820;6.274;2023-05-07T09:55:25;97598.09;;;22.00;100.00
70506;BME280;58032;49.820;6.274;2023-05-07T09:57:53;97588.69;;;21.49;100.00
70506;BME280;58032;49.820;6.274;2023-05-07T10:00:21;97597.69;;;20.51;100.00
70506;BME280;58032;49.820;6.274;2023-05-07T10:02:56;97595.75;;;20.76;100.00
70506;BME280;58032;49.820;6.274;2023-05-07T10:05:33;97593.53;;;20.99;100.00
70506;BME280;58032;49.820;6.274;2023-05-07T10:08:01;97593.44;;;20.69;100.00
70506;BME280;58032;49.820;6.274;2023-05-07T10:10:32;97595.09;;;20.53;100.00
70506;BME280;58032;49.820;6.274;2023-05-07T10:13:01;97591.91;;;20.62;100.00
70506;BME280;58032;49.820;6.274;2023-05-07T10:15:32;97598.19;;;20.55;100.00
70506;BME280;58032;49.820;6.274;2023-05-07T10:18:05;97586.44;;;20.64;100.00
70506;BME280;58032;49.820;6.274;2023-05-07T10:20:33;97588.13;;;20.43;100.00
70506;BME280;58032;49.820;6.274;2023-05-07T10:23:04;97582.94;;;20.35;100.00
70506;BME280;58032;49.820;6.274;2023-05-07T10:25:37;97588.97;;;20.20;100.00
70506;BME280;58032;49.820;6.274;2023-05-07T10:28:12;97584.63;;;20.02;100.00
70506;BME280;58032;49.820;6.274;2023-05-07T10:31:03;97578.06;;;21.14;100.00
70506;BME280;58032;49.820;6.274;2023-05-07T10:33:41;97586.03;;;20.91;100.00
70506;BME280;58032;49.820;6.274;2023-05-07T10:36:09;97584.84;;;21.11;100.00
70506;BME280;58032;49.820;6.274;2023-05-07T10:38:37;97579.38;;;21.74;100.00
70506;BME280;58032;49.820;6.274;2023-05-07T10:41:05;97577.50;;;21.46;100.00
70506;BME280;58032;49.820;6.274;2023-05-07T10:43:43;97585.38;;;21.40;100.00
70506;BME280;58032;49.820;6.274;2023-05-07T10:46:18;97589.19;;;22.03;100.00
70506;BME280;58032;49.820;6.274;2023-05-07T10:51:37;97580.13;;;22.24;100.00
70506;BME280;58032;49.820;6.274;2023-05-07T10:56:51;97580.09;;;21.19;100.00
70506;BME280;58032;49.820;6.274;2023-05-07T10:59:33;97576.88;;;21.34;100.00
70506;BME280;58032;49.820;6.274;2023-05-07T11:05:33;97581.06;;;21.27;100.00
70506;BME280;58032;49.820;6.274;2023-05-07T11:08:12;97574.31;;;21.55;100.00
70506;BME280;58032;49.820;6.274;2023-05-07T11:10:56;97556.53;;;22.12;100.00
70506;BME280;58032;49.820;6.274;2023-05-07T11:13:48;97576.97;;;21.17;100.00
70506;BME280;58032;49.820;6.274;2023-05-07T11:16:44;97573.94;;;20.67;100.00
70506;BME280;58032;49.820;6.274;2023-05-07T11:19:54;97574.22;;;21.06;100.00
70506;BME280;58032;49.820;6.274;2023-05-07T11:25:09;97570.63;;;22.10;100.00
70506;BME280;58032;49.820;6.274;2023-05-07T11:27:36;97560.94;;;23.08;100.00
70506;BME280;58032;49.820;6.274;2023-05-07T11:30:03;97566.69;;;23.08;100.00
70506;BME280;58032;49.820;6.274;2023-05-07T11:32:31;97561.31;;;22.48;92.21
70506;BME280;58032;49.820;6.274;2023-05-07T11:35:00;97562.84;;;22.87;100.00
70506;BME280;58032;49.820;6.274;2023-05-07T11:37:28;97557.59;;;23.04;96.50
70506;BME280;58032;49.820;6.274;2023-05-07T11:40:04;97551.59;;;22.89;94.42
70506;BME280;58032;49.820;6.274;2023-05-07T11:42:35;97551.59;;;22.70;98.10
70506;BME280;58032;49.820;6.274;2023-05-07T11:45:02;97557.44;;;22.45;100.00
70506;BME280;58032;49.820;6.274;2023-05-07T11:47:30;97554.72;;;22.72;100.00
70506;BME280;58032;49.820;6.274;2023-05-07T11:50:03;97571.41;;;21.30;100.00
70506;BME280;58032;49.820;6.274;2023-05-07T11:52:30;97561.41;;;22.42;100.00
70506;BME280;58032;49.820;6.274;2023-05-07T11:54:59;97552.81;;;22.93;100.00
70506;BME280;58032;49.820;6.274;2023-05-07T11:57:30;97560.22;;;22.70;100.00
70506;BME280;58032;49.820;6.274;2023-05-07T12:00:00;97563.47;;;22.60;100.00
70506;BME280;58032;49.820;6.274;2023-05-07T12:02:38;97567.06;;;22.04;100.00
70506;BME280;58032;49.820;6.274;2023-05-07T12:05:05;97562.72;;;22.41;100.00
70506;BME280;58032;49.820;6.274;2023-05-07T12:07:33;97568.44;;;21.97;100.00
70506;BME280;58032;49.820;6.274;2023-05-07T12:10:04;97572.28;;;21.50;100.00
70506;BME280;58032;49.820;6.274;2023-05-07T12:12:38;97573.38;;;20.80;100.00
70506;BME280;58032;49.820;6.274;2023-05-07T12:15:06;97569.94;;;20.87;100.00
70506;BME280;58032;49.820;6.274;2023-05-07T12:17:33;97570.00;;;21.12;100.00
70506;BME280;58032;49.820;6.274;2023-05-07T12:20:01;97572.94;;;20.59;100.00
70506;BME280;58032;49.820;6.274;2023-05-07T12:22:28;97573.41;;;20.16;100.00
70506;BME280;58032;49.820;6.274;2023-05-07T12:24:58;97578.16;;;19.96;100.00
70506;BME280;58032;49.820;6.274;2023-05-07T12:27:26;97578.88;;;20.14;100.00
70506;BME280;58032;49.820;6.274;2023-05-07T12:29:53;97583.38;;;19.75;100.00
70506;BME280;58032;49.820;6.274;2023-05-07T12:32:21;97574.88;;;19.35;100.00
70506;BME280;58032;49.820;6.274;2023-05-07T12:34:51;97578.00;;;19.14;100.00
70506;BME280;58032;49.820;6.274;2023-05-07T12:37:24;97583.16;;;19.56;100.00
70506;BME280;58032;49.820;6.274;2023-05-07T12:40:09;97589.66;;;19.39;100.00
70506;BME280;58032;49.820;6.274;2023-05-07T12:42:37;97588.88;;;19.61;100.00
70506;BME280;58032;49.820;6.274;2023-05-07T12:45:12;97590.44;;;19.45;100.00
70506;BME280;58032;49.820;6.274;2023-05-07T12:47:43;97593.84;;;19.38;100.00
70506;BME280;58032;49.820;6.274;2023-05-07T12:50:13;97591.97;;;19.46;100.00
70506;BME280;58032;49.820;6.274;2023-05-07T12:52:40;97596.25;;;20.27;100.00
70506;BME280;58032;49.820;6.274;2023-05-07T12:55:08;97588.97;;;20.79;100.00
70506;BME280;58032;49.820;6.274;2023-05-07T12:57:43;97598.00;;;20.95;100.00
70506;BME280;58032;49.820;6.274;2023-05-07T13:00:10;97597.84;;;20.76;100.00
70506;BME280;58032;49.820;6.274;2023-05-07T13:02:38;97601.22;;;20.09;100.00
70506;BME280;58032;49.820;6.274;2023-05-07T13:05:06;97601.31;;;19.70;100.00
70506;BME280;58032;49.820;6.274;2023-05-07T13:07:34;97595.59;;;19.87;100.00
70506;BME280;58032;49.820;6.274;2023-05-07T13:10:01;97599.91;;;20.22;100.00
70506;BME280;58032;49.820;6.274;2023-05-07T13:12:28;97601.00;;;21.08;100.00
70506;BME280;58032;49.820;6.274;2023-05-07T13:14:55;97598.59;;;20.82;100.00